Time;durP1;ratioP1;P1;durP2;ratioP2;P2;SDS_P1;SDS_P2;PMS_P1;PMS_P2;Temp;Humidity;BMP_temperature;BMP_pressure;BME280_temperature;BME280_humidity;BME280_pressure;Samples;Min_cycle;Max_cycle;Signal;HPM_P1;HPM_P2
2023/01/03 00:01:47;;;;;;;20.17;11.50;;;;;;;13.90;51.68;94176.78;4953429;28;20117;-87
2023/01/03 00:04:12;;;;;;;20.55;11.40;;;;;;;13.91;51.67;94179.03;4949435;28;20320;-87
2023/01/03 00:06:45;;;;;;;17.13;11.13;;;;;;;13.91;51.46;94179.03;4936951;28;20623;-87
2023/01/03 00:09:12;;;;;;;18.70;11.77;;;;;;;13.92;51.44;94169.66;4937122;28;20047;-86
2023/01/03 00:14:26;;;;;;;19.25;10.65;;;;;;;13.90;51.17;94174.06;4968343;28;20065;-87
2023/01/03 00:16:53;;;;;;;21.05;11.40;;;;;;;13.91;51.45;94181.75;4952669;28;20484;-87
2023/01/03 00:19:19;;;;;;;22.20;10.95;;;;;;;13.90;51.45;94185.69;4951733;28;20500;-87
2023/01/03 00:21:44;;;;;;;18.55;10.85;;;;;;;13.88;51.73;94185.38;4969865;28;20041;-87
2023/01/03 00:24:10;;;;;;;17.13;10.88;;;;;;;13.89;51.42;94181.47;4951845;28;20416;-87
2023/01/03 00:26:35;;;;;;;16.35;10.95;;;;;;;13.90;51.40;94188.41;4952391;28;20043;-87
2023/01/03 00:29:01;;;;;;;16.63;10.13;;;;;;;13.89;51.32;94184.16;4951958;28;20511;-87
2023/01/03 00:31:26;;;;;;;18.88;10.82;;;;;;;13.92;51.84;94194.13;4952092;28;20039;-87
2023/01/03 00:33:51;;;;;;;17.77;10.77;;;;;;;13.90;51.46;94188.41;4968119;28;20039;-87
2023/01/03 00:36:17;;;;;;;23.70;11.40;;;;;;;13.89;51.22;94186.13;4968370;28;20050;-87
2023/01/03 00:38:42;;;;;;;17.08;10.75;;;;;;;13.89;51.57;94184.16;4936994;28;20038;-87
2023/01/03 00:41:12;;;;;;;16.67;10.95;;;;;;;13.88;51.66;94193.53;4951317;28;20062;-87
2023/01/03 00:43:40;;;;;;;17.05;10.20;;;;;;;13.89;51.27;94199.72;4936988;28;20031;-87
2023/01/03 00:46:06;;;;;;;16.33;10.95;;;;;;;13.88;51.62;94198.97;4935982;28;20039;-87
2023/01/03 00:48:31;;;;;;;16.17;10.77;;;;;;;13.86;51.48;94198.69;4936099;28;20039;-87
2023/01/03 00:50:57;;;;;;;17.23;10.82;;;;;;;13.87;51.33;94204.88;4949468;28;20039;-86
2023/01/03 00:53:22;;;;;;;16.35;10.48;;;;;;;13.88;51.50;94200.94;4951738;28;20458;-89
2023/01/03 00:55:48;;;;;;;15.45;10.95;;;;;;;13.88;51.40;94196.25;4967919;28;20054;-88
2023/01/03 00:58:13;;;;;;;21.88;11.40;;;;;;;13.89;51.44;94203.19;4935910;28;20046;-88
2023/01/03 01:00:39;;;;;;;22.50;11.38;;;;;;;13.89;51.28;94210.59;4936574;28;20034;-87
2023/01/03 01:03:04;;;;;;;19.17;10.65;;;;;;;13.92;51.26;94205.00;4951822;28;20812;-89
2023/01/03 01:05:29;;;;;;;16.55;10.93;;;;;;;13.91;51.32;94203.50;4951209;28;20398;-89
2023/01/03 01:07:55;;;;;;;18.70;10.30;;;;;;;13.91;51.46;94206.22;4952800;28;20094;-87
2023/01/03 01:10:20;;;;;;;19.13;11.20;;;;;;;13.92;51.37;94199.56;4948376;28;20485;-87
2023/01/03 01:12:46;;;;;;;17.63;10.82;;;;;;;13.90;51.35;94206.66;4965822;28;20058;-87
2023/01/03 01:15:12;;;;;;;18.17;10.57;;;;;;;13.90;51.18;94195.81;4979580;28;20053;-87
2023/01/03 01:17:37;;;;;;;19.20;10.55;;;;;;;13.90;51.84;94210.13;4964345;28;20485;-87
2023/01/03 01:20:03;;;;;;;14.23;9.82;;;;;;;13.89;51.43;94208.63;4962563;28;20055;-86
2023/01/03 01:22:29;;;;;;;17.30;11.05;;;;;;;13.86;51.36;94211.53;4936402;28;20035;-87
2023/01/03 01:24:54;;;;;;;16.35;10.45;;;;;;;13.90;51.44;94209.38;4951916;28;20551;-86
2023/01/03 01:27:20;;;;;;;14.48;10.35;;;;;;;13.88;51.45;94215.28;4931630;28;20268;-88
2023/01/03 01:29:45;;;;;;;16.83;9.82;;;;;;;13.89;51.15;94208.63;4959855;28;20055;-87
2023/01/03 01:32:10;;;;;;;18.48;10.55;;;;;;;13.88;51.21;94218.00;4951561;28;20042;-88
2023/01/03 01:34:36;;;;;;;19.50;11.18;;;;;;;13.87;51.51;94213.78;4951948;28;20043;-87
2023/01/03 01:37:01;;;;;;;16.13;10.02;;;;;;;13.90;51.11;94220.25;4954297;28;20047;-88
2023/01/03 01:39:27;;;;;;;19.27;10.10;;;;;;;13.89;51.48;94221.47;4955279;28;20412;-87
2023/01/03 01:44:39;;;;;;;14.73;10.20;;;;;;;13.89;51.26;94222.22;4958063;28;20132;-89
2023/01/03 01:47:09;;;;;;;19.65;11.18;;;;;;;13.88;51.33;94228.13;4970894;28;20047;-87
2023/01/03 01:49:35;;;;;;;13.65;9.68;;;;;;;13.89;51.25;94238.53;4956236;28;20067;-88
2023/01/03 01:52:01;;;;;;;15.93;9.57;;;;;;;13.87;51.24;94232.81;4955999;28;20035;-87
2023/01/03 01:54:26;;;;;;;17.95;11.05;;;;;;;13.90;51.11;94231.88;4938778;28;20038;-87
2023/01/03 01:56:52;;;;;;;17.77;10.50;;;;;;;13.85;51.52;94231.78;4955088;28;20023;-88
2023/01/03 01:59:17;;;;;;;16.15;9.52;;;;;;;13.86;51.35;94230.53;4955020;28;20038;-87
2023/01/03 02:01:44;;;;;;;12.85;9.52;;;;;;;13.87;51.46;94232.06;4955198;28;20045;-87
2023/01/03 02:04:20;;;;;;;17.13;9.63;;;;;;;13.87;51.35;94234.75;4953810;28;20612;-87
2023/01/03 02:06:45;;;;;;;18.90;10.00;;;;;;;13.88;51.43;94234.31;4937532;28;20081;-88
2023/01/03 02:09:11;;;;;;;14.80;10.52;;;;;;;13.89;51.51;94240.50;4953111;28;20043;-86
2023/01/03 02:13:04;;;;;;;18.27;11.25;;;;;;;13.85;51.36;94240.69;4938272;28;20045;-87
2023/01/03 02:15:01;;;;;;;15.20;10.20;;;;;;;13.90;51.38;94248.19;4971212;28;20051;-87
2023/01/03 02:17:34;;;;;;;16.08;9.93;;;;;;;13.89;50.99;94256.81;4970096;28;20117;-87
2023/01/03 02:20:37;;;;;;;16.30;10.23;;;;;;;13.87;51.34;94256.50;4953630;28;20477;-88
2023/01/03 02:23:15;;;;;;;14.90;9.75;;;;;;;13.86;51.22;94250.31;4971215;28;20055;-86
2023/01/03 02:26:18;;;;;;;16.80;10.90;;;;;;;13.89;51.43;94251.38;4969484;28;20069;-87
2023/01/03 02:29:05;;;;;;;12.05;9.30;;;;;;;13.87;51.16;94254.53;4968623;28;20089;-88
2023/01/03 02:31:39;;;;;;;16.17;10.88;;;;;;;13.87;51.44;94242.91;4933970;28;20047;-86
2023/01/03 02:34:26;;;;;;;15.32;10.35;;;;;;;13.87;51.15;94253.78;4936837;28;20513;-87
2023/01/03 02:37:09;;;;;;;14.98;9.60;;;;;;;13.83;51.56;94248.53;4969194;28;20092;-87
2023/01/03 02:39:58;;;;;;;14.32;9.02;;;;;;;13.86;51.25;94253.03;4969616;28;20106;-88
2023/01/03 02:42:59;;;;;;;17.73;10.10;;;;;;;13.84;51.36;94250.06;4933605;28;20428;-87
2023/01/03 02:45:58;;;;;;;13.35;10.32;;;;;;;13.83;51.68;94245.84;4948240;28;20436;-86
2023/01/03 02:48:35;;;;;;;15.00;9.98;;;;;;;13.84;51.40;94246.59;4938136;28;20043;-87
2023/01/03 02:51:02;;;;;;;19.23;10.23;;;;;;;13.79;51.46;94237.09;4953381;28;20050;-87
2023/01/03 02:53:32;;;;;;;14.25;9.88;;;;;;;13.84;51.55;94244.63;4952368;28;20035;-87
2023/01/03 02:56:00;;;;;;;14.93;10.07;;;;;;;13.85;51.09;94245.38;4985814;28;20047;-87
2023/01/03 02:58:27;;;;;;;14.00;9.98;;;;;;;13.82;51.35;94247.03;4985012;28;20126;-88
2023/01/03 03:00:54;;;;;;;17.50;10.50;;;;;;;13.80;51.62;94251.44;4952606;28;20039;-87
2023/01/03 03:03:22;;;;;;;14.77;9.67;;;;;;;13.81;51.34;94252.94;4913534;28;1153707;-88
2023/01/03 03:05:51;;;;;;;14.95;9.23;;;;;;;13.82;51.59;94254.44;4938539;28;20623;-87
2023/01/03 03:08:17;;;;;;;14.80;9.68;;;;;;;13.82;51.23;94247.03;4953646;28;20527;-88
2023/01/03 03:13:36;;;;;;;13.23;8.88;;;;;;;13.82;51.14;94249.75;4956598;28;20356;-87
2023/01/03 03:16:10;;;;;;;14.15;9.70;;;;;;;13.81;51.42;94256.41;4954040;28;20053;-88
2023/01/03 03:18:41;;;;;;;15.35;8.85;;;;;;;13.81;51.39;94256.41;4953005;28;20035;-87
2023/01/03 03:26:40;;;;;;;16.27;10.48;;;;;;;13.83;51.54;94250.50;4955564;28;20105;-87
2023/01/03 03:29:09;;;;;;;15.90;9.77;;;;;;;13.79;51.70;94258.81;4953151;28;20035;-88
2023/01/03 03:31:39;;;;;;;17.40;10.02;;;;;;;13.80;51.43;94254.91;4952837;28;20042;-88
2023/01/03 03:34:13;;;;;;;16.17;9.90;;;;;;;13.81;51.22;94263.81;4953453;28;20050;-89
2023/01/03 03:36:44;;;;;;;12.70;9.05;;;;;;;13.85;51.08;94265.16;4953051;28;20134;-87
2023/01/03 03:44:59;;;;;;;14.85;9.75;;;;;;;13.81;51.15;94264.56;4968537;28;20042;-86
2023/01/03 03:45:01;;;;;;;17.42;9.18;;;;;;;13.80;51.49;94265.00;4969949;28;20134;-87
2023/01/03 03:47:44;;;;;;;15.80;10.02;;;;;;;13.80;51.41;94268.47;4940895;28;20027;-86
2023/01/03 03:50:28;;;;;;;14.25;9.40;;;;;;;13.80;51.51;94260.34;4968384;28;20268;-86
2023/01/03 03:52:56;;;;;;;16.38;9.98;;;;;;;13.81;51.41;94263.81;4969400;28;20038;-88
2023/01/03 03:55:27;;;;;;;12.75;9.68;;;;;;;13.81;51.32;94256.41;4968268;28;20080;-87
2023/01/03 03:58:00;;;;;;;14.37;9.17;;;;;;;13.81;51.60;94264.56;4949882;28;20392;-88
2023/01/03 04:00:28;;;;;;;16.73;9.32;;;;;;;13.82;51.37;94273.47;4957390;28;20055;-87
2023/01/03 04:02:54;;;;;;;14.00;9.55;;;;;;;13.81;51.31;94275.44;4969230;28;20535;-87
2023/01/03 04:05:20;;;;;;;16.92;9.90;;;;;;;13.84;51.42;94274.50;4953052;28;20051;-87
2023/01/03 04:07:45;;;;;;;13.95;8.73;;;;;;;13.83;51.16;94278.44;4952278;28;20039;-87
2023/01/03 04:10:11;;;;;;;13.13;9.57;;;;;;;13.83;51.19;94277.69;4952966;28;20085;-86
2023/01/03 04:12:36;;;;;;;12.27;9.40;;;;;;;13.81;51.34;94289.00;4953463;28;20109;-88
2023/01/03 04:15:03;;;;;;;15.07;9.88;;;;;;;13.82;51.23;94298.69;4953166;28;20501;-87
2023/01/03 04:17:29;;;;;;;15.05;9.68;;;;;;;13.84;51.36;94293.53;4936556;28;20039;-87
2023/01/03 04:19:54;;;;;;;11.18;8.73;;;;;;;13.82;51.46;94289.78;4952090;28;20042;-87
2023/01/03 04:22:19;;;;;;;12.27;8.60;;;;;;;13.81;51.25;94299.88;4952187;28;20042;-88
2023/01/03 04:24:45;;;;;;;15.20;9.52;;;;;;;13.80;51.40;94297.63;4937047;28;20058;-87
2023/01/03 04:27:10;;;;;;;14.50;9.48;;;;;;;13.82;51.24;94297.91;4932531;28;20614;-86
2023/01/03 04:29:36;;;;;;;13.60;9.07;;;;;;;13.85;51.05;94297.75;4984090;28;20042;-88
2023/01/03 04:32:01;;;;;;;13.52;9.00;;;;;;;13.83;51.16;94297.47;4968711;28;20055;-89
2023/01/03 04:34:26;;;;;;;13.52;9.48;;;;;;;13.81;51.21;94299.13;4968360;28;20054;-88
2023/01/03 04:36:52;;;;;;;11.68;8.15;;;;;;;13.84;51.27;94295.50;4969194;28;20066;-88
2023/01/03 04:39:18;;;;;;;17.30;8.82;;;;;;;13.86;51.46;94293.81;4947925;28;20067;-88
2023/01/03 04:41:44;;;;;;;15.82;9.38;;;;;;;13.80;51.47;94292.94;4969100;28;20041;-87
2023/01/03 04:44:09;;;;;;;17.30;9.82;;;;;;;13.80;51.27;94292.19;4952804;28;20047;-87
2023/01/03 04:46:37;;;;;;;14.40;9.65;;;;;;;13.78;51.34;94298.09;4968330;28;20035;-87
2023/01/03 04:49:03;;;;;;;14.73;8.73;;;;;;;13.75;51.49;94299.00;4935422;28;20059;-87
2023/01/03 04:51:28;;;;;;;14.45;8.98;;;;;;;13.76;51.47;94297.03;4949325;29;20466;-87
2023/01/03 04:53:54;;;;;;;13.13;9.23;;;;;;;13.81;51.20;94290.97;4965693;28;20044;-87
2023/01/03 04:56:23;;;;;;;14.55;9.07;;;;;;;13.80;51.27;94292.94;4949073;28;20032;-86
2023/01/03 04:58:49;;;;;;;19.00;10.07;;;;;;;13.80;51.50;94303.06;4938039;28;20126;-88
2023/01/03 05:01:14;;;;;;;11.63;8.60;;;;;;;13.81;51.46;94293.69;4951409;28;20043;-87
2023/01/03 05:03:39;;;;;;;12.30;8.68;;;;;;;13.81;50.97;94290.97;4935967;28;20093;-87
2023/01/03 05:06:06;;;;;;;13.30;8.75;;;;;;;13.81;51.32;94305.31;4935867;28;20594;-87
2023/01/03 05:08:32;;;;;;;13.30;8.63;;;;;;;13.80;51.32;94301.09;4951363;28;20042;-89
2023/01/03 05:10:57;;;;;;;12.90;8.85;;;;;;;13.82;51.45;94295.97;4936346;28;20307;-87
2023/01/03 05:13:23;;;;;;;12.70;9.30;;;;;;;13.80;51.54;94311.97;4940563;28;20047;-86
2023/01/03 05:15:48;;;;;;;13.00;9.23;;;;;;;13.79;51.26;94309.69;4955969;28;20046;-87
2023/01/03 05:18:13;;;;;;;13.80;8.98;;;;;;;13.80;51.46;94303.81;4939644;28;20118;-87
2023/01/03 05:26:13;;;;;;;13.18;8.57;;;;;;;13.80;51.35;94309.25;4972052;28;20519;-87
2023/01/03 05:28:39;;;;;;;13.55;8.88;;;;;;;13.81;51.63;94310.00;4956050;28;20045;-87
2023/01/03 05:31:04;;;;;;;13.13;8.85;;;;;;;13.77;51.36;94310.16;4954435;28;20042;-86
2023/01/03 05:33:29;;;;;;;14.73;9.18;;;;;;;13.81;51.21;94301.84;4955754;28;20058;-87
2023/01/03 05:35:55;;;;;;;12.15;8.48;;;;;;;13.79;51.55;94299.59;4988138;28;20436;-87
2023/01/03 05:38:22;;;;;;;14.50;9.23;;;;;;;13.81;51.27;94312.72;4938871;28;20046;-87
2023/01/03 05:40:48;;;;;;;11.77;8.15;;;;;;;13.79;51.16;94315.13;4936405;29;20031;-87
2023/01/03 05:43:13;;;;;;;14.55;8.82;;;;;;;13.78;51.57;94310.91;4944695;28;20039;-88
2023/01/03 05:45:38;;;;;;;11.27;8.15;;;;;;;13.79;51.37;94307.00;4971487;28;20050;-87
2023/01/03 05:48:05;;;;;;;16.65;9.15;;;;;;;13.78;51.43;94294.59;4955479;28;20039;-88
2023/01/03 05:50:30;;;;;;;14.60;8.95;;;;;;;13.78;51.21;94310.91;4939687;28;20039;-87
2023/01/03 05:52:56;;;;;;;13.90;9.70;;;;;;;13.79;51.08;94299.59;4955271;28;20071;-88
2023/01/03 05:55:21;;;;;;;14.85;9.95;;;;;;;13.83;51.39;94304.88;4953409;28;20425;-87
2023/01/03 05:57:47;;;;;;;12.38;8.68;;;;;;;13.81;51.47;94310.00;4939990;28;20493;-87
2023/01/03 06:00:13;;;;;;;11.82;9.30;;;;;;;13.80;51.26;94308.50;4938058;28;20643;-87
2023/01/03 06:02:39;;;;;;;26.75;8.77;;;;;;;13.82;51.37;94319.66;4955826;28;20047;-88
2023/01/03 06:05:05;;;;;;;13.80;8.55;;;;;;;13.80;51.04;94328.28;4939307;28;20050;-87
2023/01/03 06:07:32;;;;;;;14.85;8.48;;;;;;;13.77;51.42;94331.16;4938544;28;20382;-87
2023/01/03 06:09:58;;;;;;;12.07;9.10;;;;;;;13.78;51.69;94324.50;4940125;28;20118;-88
2023/01/03 06:12:27;;;;;;;16.20;9.15;;;;;;;13.76;51.44;94335.81;4938650;28;20042;-87
2023/01/03 06:14:53;;;;;;;14.25;9.88;;;;;;;13.77;51.42;94342.78;4939294;28;20030;-87
2023/01/03 06:20:02;;;;;;;17.25;9.02;;;;;;;13.77;51.45;94339.28;4956435;28;20106;-87
2023/01/03 06:22:28;;;;;;;13.73;8.73;;;;;;;13.77;51.21;94337.34;4954309;28;20485;-87
2023/01/03 06:24:53;;;;;;;11.00;8.75;;;;;;;13.77;51.41;94339.28;4938896;28;20042;-87
2023/01/03 06:27:19;;;;;;;12.00;8.77;;;;;;;13.79;51.43;94340.34;4935264;28;20036;-89
2023/01/03 06:29:44;;;;;;;12.75;9.07;;;;;;;13.77;51.36;94331.16;4970963;28;20131;-87
2023/01/03 06:32:10;;;;;;;18.10;9.25;;;;;;;13.80;51.29;94335.66;4954028;28;20050;-86
2023/01/03 06:34:35;;;;;;;14.07;9.68;;;;;;;13.76;51.39;94333.09;4954666;28;20408;-89
2023/01/03 06:37:01;;;;;;;13.38;8.82;;;;;;;13.75;51.30;94342.47;4970740;28;20051;-87
2023/01/03 06:39:26;;;;;;;12.32;9.10;;;;;;;13.75;51.49;94328.88;4953796;28;20474;-89
2023/01/03 06:41:52;;;;;;;12.48;9.07;;;;;;;13.72;51.34;94346.84;4954151;28;20051;-87
2023/01/03 06:44:17;;;;;;;11.15;8.23;;;;;;;13.76;51.58;94356.81;4934354;28;20405;-87
2023/01/03 06:55:09;;;;;;;12.20;8.45;;;;;;;13.78;51.40;94357.09;4935613;28;20051;-87
2023/01/03 06:57:34;;;;;;;11.88;8.52;;;;;;;13.76;51.52;94357.56;4933693;28;20039;-86
2023/01/03 07:00:00;;;;;;;12.32;8.48;;;;;;;13.77;51.60;94367.22;4934133;29;20054;-86
2023/01/03 07:02:25;;;;;;;10.98;8.35;;;;;;;13.79;51.22;94364.06;4949291;28;20089;-88
2023/01/03 07:04:51;;;;;;;13.57;9.00;;;;;;;13.76;51.35;94370.41;4933577;28;20039;-88
2023/01/03 07:07:16;;;;;;;13.63;9.30;;;;;;;13.76;51.51;94373.88;4937864;28;20039;-87
2023/01/03 07:09:41;;;;;;;11.40;8.50;;;;;;;13.80;51.42;94376.44;4936896;28;20035;-87
2023/01/03 07:14:52;;;;;;;12.57;8.25;;;;;;;13.77;51.36;94386.25;4917829;29;20079;-89
2023/01/03 07:17:18;;;;;;;12.57;8.63;;;;;;;13.79;51.39;94394.69;4914180;29;20055;-88
2023/01/03 07:19:43;;;;;;;12.25;8.88;;;;;;;13.79;51.25;94404.81;4938578;28;20120;-87
2023/01/03 07:22:09;;;;;;;11.30;8.23;;;;;;;13.79;51.52;94393.94;4904729;29;20223;-89
2023/01/03 07:24:34;;;;;;;14.40;8.70;;;;;;;13.77;51.27;94397.13;4913791;29;20494;-87
2023/01/03 07:26:59;;;;;;;25.67;12.35;;;;;;;13.80;51.11;94398.16;4898775;29;20047;-87
2023/01/03 07:29:25;;;;;;;11.73;8.88;;;;;;;13.76;51.01;94409.19;4921170;29;20039;-87
2023/01/03 07:31:50;;;;;;;13.70;8.85;;;;;;;13.79;51.26;94408.28;4940294;29;20040;-88
2023/01/03 07:34:16;;;;;;;14.45;8.98;;;;;;;13.79;51.09;94416.44;4929183;29;20043;-89
2023/01/03 07:36:41;;;;;;;16.55;10.00;;;;;;;13.81;51.07;94400.44;4915013;29;20047;-88
2023/01/03 07:39:06;;;;;;;19.65;11.48;;;;;;;13.76;51.51;94403.75;4898311;29;20164;-86
2023/01/03 07:44:17;;;;;;;57.20;28.90;;;;;;;13.84;51.17;94396.06;4915758;29;20050;-89
2023/01/03 07:46:42;;;;;;;60.92;30.13;;;;;;;13.83;51.00;94402.69;4936593;28;20412;-88
2023/01/03 07:49:08;;;;;;;75.28;37.47;;;;;;;13.81;51.18;94403.16;4953746;28;20049;-89
2023/01/03 07:51:33;;;;;;;118.53;55.78;;;;;;;13.81;51.25;94400.44;4949808;29;20050;-88
2023/01/03 07:53:59;;;;;;;102.40;51.63;;;;;;;13.84;51.41;94396.06;4981816;28;20038;-88
2023/01/03 07:56:24;;;;;;;82.75;40.92;;;;;;;13.83;51.19;94398.03;4952785;28;20050;-86
2023/01/03 07:58:50;;;;;;;71.20;35.35;;;;;;;13.83;50.98;94411.59;4953750;28;20035;-89
2023/01/03 08:01:20;;;;;;;55.20;29.95;;;;;;;13.86;51.18;94404.47;4936023;28;20038;-87
2023/01/03 08:03:46;;;;;;;54.08;26.38;;;;;;;13.89;50.99;94414.44;4937866;28;20038;-89
2023/01/03 08:06:14;;;;;;;58.53;28.95;;;;;;;13.84;51.04;94415.84;4936798;28;20210;-92
2023/01/03 08:08:39;;;;;;;50.38;26.30;;;;;;;13.88;51.22;94413.69;4950204;28;20336;-85
2023/01/03 08:13:50;;;;;;;65.93;28.33;;;;;;;13.88;50.87;94421.84;4955786;28;20548;-85
2023/01/03 08:16:16;;;;;;;59.03;29.92;;;;;;;13.88;51.47;94430.00;4937008;28;20063;-87
2023/01/03 08:18:42;;;;;;;97.75;33.08;;;;;;;13.84;51.58;94421.28;4937456;28;20050;-85
2023/01/03 08:21:08;;;;;;;65.03;31.23;;;;;;;13.91;51.32;94415.50;4936023;28;20039;-85
2023/01/03 08:23:34;;;;;;;53.22;27.13;;;;;;;13.89;51.20;94425.31;4936763;28;20335;-86
2023/01/03 08:26:05;;;;;;;50.97;28.63;;;;;;;13.89;51.21;94428.78;4954078;28;20086;-89
2023/01/03 08:28:30;;;;;;;;;;;;;;;13.93;51.04;94434.81;4953187;28;20054;-89
2023/01/03 08:30:55;;;;;;;64.15;28.73;;;;;;;13.88;51.26;94432.72;4969099;28;20372;-89
2023/01/03 08:33:21;;;;;;;64.85;30.13;;;;;;;13.87;51.23;94430.44;4951812;28;20039;-87
2023/01/03 08:35:54;;;;;;;62.72;30.83;;;;;;;13.84;51.37;94437.56;4952899;28;20034;-88
2023/01/03 08:38:24;;;;;;;60.55;31.08;;;;;;;13.85;51.35;94439.09;4952625;28;20039;-88
2023/01/03 08:40:52;;;;;;;58.45;31.77;;;;;;;13.83;51.29;94435.31;4937641;28;20085;-88
2023/01/03 08:43:17;;;;;;;76.72;33.92;;;;;;;13.87;51.23;94435.88;4951102;28;20062;-88
2023/01/03 08:45:42;;;;;;;75.82;34.70;;;;;;;13.84;51.23;94434.84;4937207;28;20449;-85
2023/01/03 08:48:08;;;;;;;73.78;33.60;;;;;;;13.84;51.19;94429.41;4952285;28;20110;-84
2023/01/03 08:50:35;;;;;;;71.05;32.35;;;;;;;13.86;51.46;94437.09;4933137;29;20529;-88
2023/01/03 08:53:00;;;;;;;65.85;31.60;;;;;;;13.87;51.36;94435.88;4933166;28;20066;-84
2023/01/03 08:55:25;;;;;;;77.43;30.95;;;;;;;13.93;51.09;94429.38;4964818;28;20035;-85
2023/01/03 08:57:51;;;;;;;61.65;31.85;;;;;;;13.87;51.51;94444.03;4968568;28;20366;-84
2023/01/03 09:00:16;;;;;;;60.22;31.90;;;;;;;13.88;51.43;94438.16;4952404;28;20089;-84
2023/01/03 09:02:42;;;;;;;65.40;30.48;;;;;;;13.88;51.43;94440.88;4967633;28;20042;-84
2023/01/03 09:05:08;;;;;;;74.72;32.70;;;;;;;13.87;51.30;94444.03;4967394;28;20121;-85
2023/01/03 09:07:34;;;;;;;68.22;31.92;;;;;;;13.87;51.25;94444.03;4952268;28;20500;-85
2023/01/03 09:09:59;;;;;;;58.90;29.05;;;;;;;13.89;51.35;94447.81;4953052;28;20401;-86
2023/01/03 09:12:26;;;;;;;65.18;30.40;;;;;;;13.95;51.39;94456.13;4934038;28;20038;-86
2023/01/03 09:14:51;;;;;;;71.00;32.38;;;;;;;13.98;51.06;94457.91;4969975;28;20084;-88
2023/01/03 09:17:17;;;;;;;78.47;34.70;;;;;;;13.93;51.13;94453.09;4935648;28;20043;-85
2023/01/03 09:19:42;;;;;;;65.72;32.17;;;;;;;13.90;51.10;94457.47;4951437;28;20043;-87
2023/01/03 09:22:08;;;;;;;65.82;32.33;;;;;;;13.89;51.17;94466.09;4935337;28;20035;-86
2023/01/03 09:24:33;;;;;;;85.72;39.17;;;;;;;13.88;51.35;94457.16;4968018;28;20043;-88
2023/01/03 09:26:59;;;;;;;91.90;42.88;;;;;;;13.91;51.43;94460.94;4932384;29;20043;-84
2023/01/03 09:29:24;;;;;;;97.88;42.90;;;;;;;13.85;51.26;94471.69;4968535;28;20065;-84
2023/01/03 09:31:52;;;;;;;118.60;48.03;;;;;;;13.92;51.27;94465.19;4951758;28;20050;-87
2023/01/03 09:34:18;;;;;;;108.60;46.72;;;;;;;13.89;51.08;94461.41;4950554;28;20045;-89
2023/01/03 09:36:43;;;;;;;113.40;44.13;;;;;;;13.89;51.35;94479.66;4936011;28;20035;-88
2023/01/03 09:39:09;;;;;;;134.00;50.40;;;;;;;13.99;51.22;94476.50;4952403;28;20251;-83
2023/01/03 09:41:34;;;;;;;146.35;51.42;;;;;;;13.93;51.34;94470.16;4952129;28;20452;-84
2023/01/03 09:44:05;;;;;;;120.80;46.92;;;;;;;13.89;51.28;94464.13;4951186;28;20413;-85
2023/01/03 09:46:31;;;;;;;146.82;49.70;;;;;;;13.91;51.15;94464.41;4951979;28;20054;-86
2023/01/03 09:48:56;;;;;;;130.82;49.05;;;;;;;13.91;51.29;94458.97;4984468;28;20035;-88
2023/01/03 10:05:55;;;;;;;94.35;41.78;;;;;;;13.97;51.01;94457.16;4962098;28;20070;-88
2023/01/03 10:08:46;;;;;;;111.47;42.88;;;;;;;13.98;51.31;94452.50;4973644;28;20106;-88
2023/01/03 10:11:18;;;;;;;100.28;45.08;;;;;;;13.94;51.17;94446.44;4957750;28;20046;-89
2023/01/03 10:14:04;;;;;;;99.40;43.08;;;;;;;13.95;51.51;94450.69;4959031;28;20031;-88
2023/01/03 10:16:35;;;;;;;107.60;44.80;;;;;;;13.98;51.12;94447.81;4942829;28;20038;-89
2023/01/03 10:19:19;;;;;;;103.65;44.35;;;;;;;13.98;51.33;94450.53;4973110;28;20126;-90
2023/01/03 10:22:00;;;;;;;114.47;44.70;;;;;;;13.95;51.08;94454.16;4971847;28;20043;-90
2023/01/03 10:24:30;;;;;;;86.22;42.83;;;;;;;13.95;51.16;94443.28;4952876;28;20035;-91
2023/01/03 10:27:18;;;;;;;100.82;41.05;;;;;;;13.97;51.29;94446.28;4963271;28;20046;-89
2023/01/03 10:29:44;;;;;;;95.53;40.50;;;;;;;13.99;51.12;94443.88;4940895;28;20047;-90
2023/01/03 10:32:12;;;;;;;98.40;42.97;;;;;;;13.96;51.16;94436.63;4955159;28;20147;-89
2023/01/03 10:34:37;;;;;;;91.28;42.60;;;;;;;13.98;50.85;94445.09;4987653;28;20050;-91
2023/01/03 10:37:16;;;;;;;91.78;41.65;;;;;;;14.01;51.05;94440.69;4952639;28;20123;-89
2023/01/03 10:39:42;;;;;;;91.43;42.20;;;;;;;14.00;51.04;94434.50;4940796;28;20039;-90
2023/01/03 10:42:07;;;;;;;93.97;41.33;;;;;;;14.01;50.91;94438.00;4938721;28;20061;-90
2023/01/03 10:44:33;;;;;;;96.60;41.05;;;;;;;14.00;50.87;94431.78;4955855;28;20043;-90
2023/01/03 10:47:09;;;;;;;141.32;47.00;;;;;;;14.00;51.43;94439.94;4936183;29;20046;-91
2023/01/03 10:49:35;;;;;;;92.40;41.97;;;;;;;13.97;51.14;94435.41;4936564;28;20047;-90
2023/01/03 10:52:09;;;;;;;91.78;41.10;;;;;;;13.98;51.43;94444.34;4965530;28;20115;-89
2023/01/03 10:54:44;;;;;;;93.55;39.83;;;;;;;13.98;51.07;94447.81;4951408;28;20355;-89
2023/01/03 10:57:36;;;;;;;89.18;39.08;;;;;;;14.03;51.23;94441.00;4970341;28;20523;-93
2023/01/03 11:00:20;;;;;;;86.28;39.67;;;;;;;14.04;50.96;94434.34;4956033;28;20043;-91
2023/01/03 11:02:45;;;;;;;98.55;41.10;;;;;;;14.02;50.81;94442.97;4956715;28;20146;-90
2023/01/03 11:05:15;;;;;;;103.10;40.40;;;;;;;14.03;51.05;94441.00;4954989;28;20042;-90
2023/01/03 11:07:42;;;;;;;94.77;42.13;;;;;;;13.99;51.21;94441.16;4943554;29;20035;-91
2023/01/03 11:10:14;;;;;;;95.13;41.17;;;;;;;13.99;51.16;94443.13;4949991;28;20489;-90
2023/01/03 11:12:43;;;;;;;94.75;40.65;;;;;;;13.99;50.93;94443.13;4987433;28;20066;-90
2023/01/03 11:15:13;;;;;;;90.07;40.97;;;;;;;13.98;51.17;94438.91;4939314;28;20055;-94
2023/01/03 11:17:57;;;;;;;88.38;39.85;;;;;;;14.00;51.28;94437.22;4986848;28;20107;-90
2023/01/03 11:20:32;;;;;;;85.00;39.05;;;;;;;14.00;51.17;94426.34;4971604;28;20121;-89
2023/01/03 11:23:07;;;;;;;107.80;41.25;;;;;;;14.01;51.38;94419.72;4955056;28;20070;-89
2023/01/03 11:25:46;;;;;;;111.72;51.05;;;;;;;14.01;51.05;94418.97;4938892;28;20063;-88
2023/01/03 11:28:33;;;;;;;90.18;41.28;;;;;;;14.03;50.87;94420.00;4969936;28;20153;-93
2023/01/03 11:31:15;;;;;;;86.95;39.33;;;;;;;14.02;50.96;94417.75;4971571;28;20039;-89
2023/01/03 11:33:59;;;;;;;106.18;39.42;;;;;;;14.04;50.94;94418.03;4954542;28;20031;-90
2023/01/03 11:36:42;;;;;;;92.63;40.63;;;;;;;14.04;51.11;94416.09;4970048;28;20492;-90
2023/01/03 11:39:32;;;;;;;88.60;38.13;;;;;;;14.02;51.40;94413.06;4971314;28;20047;-88
2023/01/03 11:42:19;;;;;;;192.57;55.08;;;;;;;14.04;51.22;94413.38;4941026;28;20046;-91
2023/01/03 11:45:10;;;;;;;94.10;41.40;;;;;;;14.01;50.97;94416.25;4958776;28;20046;-91
2023/01/03 11:47:38;;;;;;;110.15;42.50;;;;;;;14.00;51.20;94415.47;4955671;28;20042;-91
2023/01/03 11:50:33;;;;;;;96.43;44.10;;;;;;;14.04;50.95;94421.53;4989077;28;20039;-93
2023/01/03 11:53:16;;;;;;;107.43;44.60;;;;;;;14.03;51.32;94416.53;4973227;28;20070;-91
2023/01/03 11:56:00;;;;;;;90.65;44.35;;;;;;;14.03;50.99;94409.13;4956767;28;20047;-92
2023/01/03 11:58:47;;;;;;;98.25;45.03;;;;;;;14.08;51.23;94405.03;4942876;28;20042;-91
2023/01/03 12:01:19;;;;;;;103.25;46.03;;;;;;;14.00;51.27;94398.41;4971204;28;20517;-91
2023/01/03 12:04:20;;;;;;;99.85;43.90;;;;;;;14.05;51.21;94400.53;4991365;28;20041;-91
2023/01/03 12:06:54;;;;;;;111.55;44.85;;;;;;;14.03;51.32;94411.84;4976298;28;20034;-90
2023/01/03 12:09:30;;;;;;;100.32;44.90;;;;;;;14.04;50.71;94410.66;4977656;28;20050;-92
2023/01/03 12:12:22;;;;;;;113.63;44.33;;;;;;;14.05;51.10;94414.88;4933608;29;20095;-93
2023/01/03 12:14:52;;;;;;;96.68;43.00;;;;;;;14.00;50.99;94418.19;4959275;28;20071;-92
2023/01/03 12:17:36;;;;;;;103.32;40.85;;;;;;;14.03;51.26;94411.09;4908651;28;20043;-92
2023/01/03 12:20:22;;;;;;;103.68;44.50;;;;;;;13.99;51.32;94405.81;4953545;28;20047;-91
2023/01/03 12:23:02;;;;;;;105.05;46.70;;;;;;;13.99;51.14;94405.06;4948713;28;20494;-93
2023/01/03 12:25:37;;;;;;;136.45;50.35;;;;;;;13.99;51.23;94400.38;4935124;29;20171;-93
2023/01/03 12:28:07;;;;;;;110.68;51.47;;;;;;;14.02;51.34;94398.72;4914258;28;20114;-91